« Back
NWS Peachtree City, Ga » Text Product » ATL Terminal Aerodrome Forecast


Printer-friendly Version
Current Version              Previous Versions:   1  2  3  4  5  6  7  8  9  

Terminal Aerodrome Forecast

268
FTUS42 KFFC 270900 AAB
TAFATL
TAF AMD
KATL 270952Z 2710/2812 08006KT P6SM SKC
     FM271500 06005KT P6SM FEW030
     FM271800 35005KT P6SM SCT050
     FM280200 VRB03KT P6SM SKC=

USA.gov is the U.S. government's official web portal to all federal, state and local government web resources and services.